createdAt,value
2018-10-04T00:00:57.579Z,102323.41
2018-10-04T00:03:27.498Z,102329.00
2018-10-04T00:05:57.169Z,102320.92
2018-10-04T00:08:28.748Z,102326.04
2018-10-04T00:11:00.824Z,102326.99
2018-10-04T00:13:30.610Z,102330.72
2018-10-04T00:16:03.152Z,102335.02
2018-10-04T00:18:35.394Z,102339.02
2018-10-04T00:21:05.588Z,102337.46
2018-10-04T00:23:38.144Z,102333.25
2018-10-04T00:26:09.531Z,102267.05
2018-10-04T00:28:41.561Z,102338.59
2018-10-04T00:31:12.464Z,102324.61
2018-10-04T00:33:48.244Z,102321.02
2018-10-04T00:36:18.115Z,102318.11
2018-10-04T00:38:51.174Z,102318.68
2018-10-04T00:41:21.721Z,102261.63
2018-10-04T00:43:52.102Z,102302.73
2018-10-04T00:46:22.040Z,102315.86
2018-10-04T00:48:51.773Z,102331.23
2018-10-04T00:51:22.812Z,102329.55
2018-10-04T00:53:53.695Z,102323.08
2018-10-04T00:56:23.654Z,102317.36
2018-10-04T00:58:53.320Z,102312.75
2018-10-04T01:01:23.579Z,102312.46
2018-10-04T01:03:53.195Z,102314.59
2018-10-04T01:06:24.597Z,102304.07
2018-10-04T01:08:54.750Z,102308.81
2018-10-04T01:11:26.605Z,102306.46
2018-10-04T01:13:56.652Z,102320.95
2018-10-04T01:16:27.585Z,102317.09
2018-10-04T01:19:01.641Z,102314.94
2018-10-04T01:21:32.647Z,102310.48
2018-10-04T01:24:02.365Z,102310.20
2018-10-04T01:34:29.480Z,102295.92
2018-10-04T01:37:00.370Z,102295.20
2018-10-04T01:39:29.748Z,102302.51
2018-10-04T01:42:00.218Z,102296.73
2018-10-04T01:44:29.871Z,102294.27
2018-10-04T01:46:59.589Z,102299.91
2018-10-04T01:49:29.031Z,102292.10
2018-10-04T01:51:58.759Z,102293.02
2018-10-04T01:54:29.584Z,102296.83
2018-10-04T01:57:01.347Z,102305.79
2018-10-04T01:59:31.739Z,102305.95
2018-10-04T02:02:01.560Z,102299.72
2018-10-04T02:04:54.778Z,102305.98
2018-10-04T02:07:25.791Z,102315.29
2018-10-04T02:09:55.197Z,102311.13
2018-10-04T02:12:24.643Z,102309.89
2018-10-04T02:14:56.101Z,102305.66
2018-10-04T02:17:25.745Z,102307.50
2018-10-04T02:19:55.643Z,102300.27
2018-10-04T02:22:25.762Z,102306.46
2018-10-04T02:24:55.762Z,102302.10
2018-10-04T02:27:25.799Z,102192.17
2018-10-04T02:30:21.598Z,102298.20
2018-10-04T02:32:51.460Z,102298.70
2018-10-04T02:35:21.761Z,102292.25
2018-10-04T02:37:51.896Z,102293.88
2018-10-04T02:40:22.102Z,102278.37
2018-10-04T02:42:51.827Z,102281.23
2018-10-04T02:45:21.813Z,102208.34
2018-10-04T02:47:51.694Z,102276.12
2018-10-04T02:50:21.514Z,102275.23
2018-10-04T02:52:52.024Z,102283.20
2018-10-04T02:55:28.243Z,102281.45
2018-10-04T02:57:58.137Z,102277.45
2018-10-04T03:00:28.567Z,102277.27
2018-10-04T03:02:58.343Z,102282.92
2018-10-04T03:05:29.365Z,102276.17
2018-10-04T03:07:59.656Z,102267.04
2018-10-04T03:10:29.293Z,102266.50
2018-10-04T03:12:59.033Z,102273.45
2018-10-04T03:15:29.035Z,102268.57
2018-10-04T03:17:59.068Z,102264.34
2018-10-04T03:20:28.756Z,102258.76
2018-10-04T03:22:58.542Z,102263.80
2018-10-04T03:25:29.153Z,102257.84
2018-10-04T03:27:58.907Z,102250.02
2018-10-04T03:33:08.620Z,102249.41
2018-10-04T03:35:38.920Z,102255.83
2018-10-04T03:38:11.414Z,102252.56
2018-10-04T03:40:40.840Z,102262.13
2018-10-04T03:43:10.414Z,102249.89
2018-10-04T03:45:40.333Z,102254.77
2018-10-04T03:48:09.830Z,102250.84
2018-10-04T03:50:39.417Z,102254.70
2018-10-04T03:53:10.056Z,102251.70
2018-10-04T03:55:42.154Z,102257.17
2018-10-04T03:58:11.790Z,102259.41
2018-10-04T04:00:43.301Z,102254.37
2018-10-04T04:03:13.543Z,102255.00
2018-10-04T04:05:43.556Z,102256.62
2018-10-04T04:08:13.677Z,102248.27
2018-10-04T04:10:45.266Z,102242.08
2018-10-04T04:13:15.021Z,102237.78
2018-10-04T04:15:44.538Z,102236.95
2018-10-04T04:18:14.427Z,102237.17
2018-10-04T04:20:45.056Z,102240.73
2018-10-04T04:23:16.444Z,102232.75
2018-10-04T04:25:47.780Z,102235.53
2018-10-04T04:28:21.063Z,102237.07
2018-10-04T04:30:50.847Z,102226.48
2018-10-04T04:33:20.368Z,102187.16
2018-10-04T04:35:50.418Z,102235.28
2018-10-04T04:38:20.174Z,102231.89
2018-10-04T04:40:50.381Z,102233.91
2018-10-04T04:43:21.739Z,102240.42
2018-10-04T04:45:53.190Z,102243.31
2018-10-04T04:48:22.520Z,102242.14
2018-10-04T04:50:52.768Z,102242.59
2018-10-04T04:53:32.672Z,102249.60
2018-10-04T04:56:02.422Z,102250.50
2018-10-04T04:58:34.271Z,102247.74
2018-10-04T05:01:04.122Z,102255.31
2018-10-04T05:03:40.639Z,102255.83
2018-10-04T05:06:10.314Z,102255.81
2018-10-04T05:08:39.658Z,102250.90
2018-10-04T05:11:11.977Z,102244.11
2018-10-04T05:13:43.429Z,102248.29
2018-10-04T05:16:13.934Z,102251.23
2018-10-04T05:18:43.481Z,102252.16
2018-10-04T05:21:13.090Z,102251.36
2018-10-04T05:23:44.246Z,102250.32
2018-10-04T05:26:14.761Z,102250.77
2018-10-04T05:28:48.401Z,102247.99
2018-10-04T05:31:19.936Z,102176.78
2018-10-04T05:33:49.835Z,102250.27
2018-10-04T05:36:20.264Z,102250.67
2018-10-04T05:38:50.245Z,102252.36
2018-10-04T05:41:26.457Z,102249.78
2018-10-04T05:44:00.797Z,102258.92
2018-10-04T05:46:32.166Z,102256.87
2018-10-04T05:49:01.581Z,102254.16
2018-10-04T05:51:34.721Z,102253.37
2018-10-04T05:54:07.839Z,102256.13
2018-10-04T05:56:37.195Z,102253.89
2018-10-04T05:59:07.433Z,102249.92
2018-10-04T06:01:38.526Z,102257.97
2018-10-04T06:04:10.723Z,102253.72
2018-10-04T06:06:43.288Z,102257.71
2018-10-04T06:09:13.896Z,102258.47
2018-10-04T06:11:45.381Z,102255.91
2018-10-04T06:14:18.192Z,102256.53
2018-10-04T06:16:48.246Z,102262.93
2018-10-04T06:19:18.647Z,102253.09
2018-10-04T06:21:53.508Z,102253.72
2018-10-04T06:24:22.945Z,102259.86
2018-10-04T06:26:55.736Z,102257.49
2018-10-04T06:29:28.098Z,102266.48
2018-10-04T06:32:02.199Z,102255.00
2018-10-04T06:34:31.633Z,102261.22
2018-10-04T06:37:02.394Z,102264.83
2018-10-04T06:39:33.070Z,102266.09
2018-10-04T06:42:05.297Z,102267.47
2018-10-04T06:44:40.558Z,102276.10
2018-10-04T06:47:11.278Z,102274.80
2018-10-04T06:49:41.611Z,102267.43
2018-10-04T06:52:14.169Z,102271.88
2018-10-04T06:54:45.266Z,102266.28
2018-10-04T06:57:14.681Z,102265.43
2018-10-04T06:59:46.387Z,102271.80
2018-10-04T07:02:19.115Z,102259.41
2018-10-04T07:04:51.980Z,102255.64
2018-10-04T07:07:22.153Z,102264.45
2018-10-04T07:09:59.568Z,102271.01
2018-10-04T07:12:30.746Z,102273.70
2018-10-04T07:15:08.438Z,102280.29
2018-10-04T07:17:42.666Z,102285.06
2018-10-04T07:20:15.557Z,102281.09
2018-10-04T07:22:48.193Z,102281.34
2018-10-04T07:25:20.759Z,102286.60
2018-10-04T07:27:51.668Z,102281.65
2018-10-04T07:30:25.141Z,102283.64
2018-10-04T07:32:55.210Z,102290.15
2018-10-04T07:35:31.481Z,102301.76
2018-10-04T07:38:05.278Z,102296.47
2018-10-04T07:40:40.423Z,102293.92
2018-10-04T07:43:10.709Z,102296.41
2018-10-04T07:45:43.120Z,102295.23
2018-10-04T07:48:15.883Z,102301.13
2018-10-04T07:50:47.847Z,102303.78
2018-10-04T07:53:24.342Z,102305.38
2018-10-04T07:55:57.725Z,102310.37
2018-10-04T07:58:27.703Z,102311.59
2018-10-04T08:01:05.675Z,102312.57
2018-10-04T08:03:39.905Z,102307.11
2018-10-04T08:06:09.490Z,102310.73
2018-10-04T08:08:43.307Z,102308.80
2018-10-04T08:11:14.553Z,102309.66
2018-10-04T08:13:45.334Z,102312.36
2018-10-04T08:16:19.275Z,102316.12
2018-10-04T08:18:52.085Z,102321.37
2018-10-04T08:21:22.807Z,102318.58
2018-10-04T08:24:01.549Z,102319.66
2018-10-04T08:26:39.261Z,102322.85
2018-10-04T08:29:13.276Z,102328.55
2018-10-04T08:31:52.351Z,102325.88
2018-10-04T08:34:23.974Z,102334.55
2018-10-04T08:36:57.100Z,102336.11
2018-10-04T08:39:29.100Z,102331.61
2018-10-04T08:41:59.635Z,102333.05
2018-10-04T08:44:29.198Z,102335.23
2018-10-04T08:47:02.653Z,102268.14
2018-10-04T08:49:36.361Z,102328.30
2018-10-04T08:52:14.325Z,102328.92
2018-10-04T08:54:44.252Z,102316.86
2018-10-04T08:57:16.200Z,102319.55
2018-10-04T08:59:54.006Z,102323.78
2018-10-04T09:02:28.451Z,102324.05
2018-10-04T09:04:58.263Z,102322.34
2018-10-04T09:07:32.844Z,102331.23
2018-10-04T09:10:04.074Z,102326.09
2018-10-04T09:12:39.882Z,102329.16
2018-10-04T09:18:01.284Z,102328.06
2018-10-04T09:20:34.136Z,102327.83
2018-10-04T09:23:04.203Z,102321.56
2018-10-04T09:25:38.690Z,102321.41
2018-10-04T09:28:14.373Z,102325.21
2018-10-04T09:30:52.360Z,102328.37
2018-10-04T09:33:22.536Z,102321.11
2018-10-04T09:35:55.608Z,102327.12
2018-10-04T09:38:26.948Z,102321.19
2018-10-04T09:40:58.773Z,102318.93
2018-10-04T09:43:34.676Z,102317.96
2018-10-04T09:46:08.497Z,102323.00
2018-10-04T09:48:39.956Z,102318.77
2018-10-04T09:51:18.431Z,102314.55
2018-10-04T09:56:27.405Z,102313.12
2018-10-04T09:59:02.520Z,102309.12
2018-10-04T10:01:37.734Z,102309.87
2018-10-04T10:04:10.961Z,102307.17
2018-10-04T10:06:40.469Z,102310.30
2018-10-04T10:09:11.960Z,102301.38
2018-10-04T10:11:44.811Z,102302.69
2018-10-04T10:14:18.672Z,102304.69
2018-10-04T10:16:50.601Z,102303.20
2018-10-04T10:19:21.343Z,102308.40
2018-10-04T10:21:51.803Z,102304.56
2018-10-04T10:24:22.104Z,102304.29
2018-10-04T10:26:52.332Z,102307.25
2018-10-04T10:29:30.049Z,102310.39
2018-10-04T10:32:01.199Z,102303.70
2018-10-04T10:34:32.684Z,102298.95
2018-10-04T10:37:03.593Z,102301.37
2018-10-04T10:39:35.209Z,102298.82
2018-10-04T10:42:04.626Z,102305.91
2018-10-04T10:44:35.817Z,102211.70
2018-10-04T10:47:05.828Z,102300.42
2018-10-04T10:49:36.380Z,102299.85
2018-10-04T10:52:06.933Z,102304.05
2018-10-04T10:54:40.205Z,102297.41
2018-10-04T10:57:12.110Z,102296.75
2018-10-04T10:59:41.553Z,102297.91
2018-10-04T11:02:11.627Z,102297.09
2018-10-04T11:04:43.358Z,102297.66
2018-10-04T11:07:13.997Z,102299.11
2018-10-04T11:09:47.557Z,102297.91
2018-10-04T11:12:18.768Z,102306.27
2018-10-04T11:14:48.259Z,102293.59
2018-10-04T11:17:22.382Z,102295.36
2018-10-04T11:19:52.359Z,102300.70
2018-10-04T11:22:22.841Z,102297.83
2018-10-04T11:24:54.283Z,102291.30
2018-10-04T11:27:25.255Z,102311.21
2018-10-04T11:29:56.030Z,102294.80
2018-10-04T11:32:26.675Z,102293.18
2018-10-04T11:34:56.611Z,102176.41
2018-10-04T11:37:30.696Z,102288.91
2018-10-04T11:40:09.463Z,102280.71
2018-10-04T11:42:41.430Z,102283.70
2018-10-04T11:45:23.269Z,102280.02
2018-10-04T11:47:55.807Z,102272.85
2018-10-04T11:50:30.369Z,102266.25
2018-10-04T11:53:06.899Z,102263.22
2018-10-04T11:55:57.885Z,102263.80
2018-10-04T11:58:29.709Z,102262.44
2018-10-04T12:01:12.548Z,102249.47
2018-10-04T12:06:42.801Z,102241.43
2018-10-04T12:09:14.690Z,102243.78
2018-10-04T12:11:46.334Z,102235.32
2018-10-04T12:14:20.162Z,102242.39
2018-10-04T12:16:50.230Z,102228.45
2018-10-04T12:19:20.282Z,102229.69
2018-10-04T12:22:03.552Z,102226.45
2018-10-04T12:27:31.557Z,102218.60
2018-10-04T12:30:22.619Z,102215.33
2018-10-04T12:32:53.140Z,102216.03
2018-10-04T12:35:42.690Z,102206.42
2018-10-04T12:38:20.281Z,102212.64
2018-10-04T12:40:49.872Z,102207.08
2018-10-04T12:43:37.941Z,102197.67
2018-10-04T12:46:08.480Z,102198.13
2018-10-04T12:48:53.908Z,102198.63
2018-10-04T12:51:25.784Z,102194.02
2018-10-04T12:54:00.147Z,102198.03
2018-10-04T12:56:30.852Z,102197.25
2018-10-04T12:59:02.908Z,102209.84
2018-10-04T13:01:33.369Z,102196.73
2018-10-04T13:04:03.769Z,102187.08
2018-10-04T13:06:35.334Z,102179.46
2018-10-04T13:09:07.307Z,102182.81
2018-10-04T13:11:39.829Z,102180.17
2018-10-04T13:14:09.732Z,102176.04
2018-10-04T13:16:39.788Z,102180.95
2018-10-04T13:19:12.228Z,102172.00
2018-10-04T13:21:43.351Z,102171.91
2018-10-04T13:24:13.801Z,102173.99
2018-10-04T13:26:45.587Z,102172.92
2018-10-04T13:29:16.233Z,102175.89
2018-10-04T13:31:47.844Z,102173.07
2018-10-04T13:34:17.255Z,102168.64
2018-10-04T13:36:50.653Z,102160.84
2018-10-04T13:39:23.548Z,102162.52
2018-10-04T13:42:01.525Z,102154.64
2018-10-04T13:44:35.891Z,102159.88
2018-10-04T13:47:06.835Z,102160.25
2018-10-04T13:49:36.523Z,102157.31
2018-10-04T13:52:10.502Z,102154.79
2018-10-04T13:54:40.990Z,102149.96
2018-10-04T13:57:14.542Z,102146.14
2018-10-04T13:59:46.026Z,102135.62
2018-10-04T14:02:17.271Z,102092.48
2018-10-04T14:04:46.998Z,102139.77
2018-10-04T14:07:17.409Z,102139.01
2018-10-04T14:09:49.284Z,102136.86
2018-10-04T14:12:24.332Z,102136.97
2018-10-04T14:14:53.976Z,102128.78
2018-10-04T14:17:25.291Z,102130.45
2018-10-04T14:19:54.825Z,102121.13
2018-10-04T14:22:25.361Z,102123.09
2018-10-04T14:24:55.443Z,102109.80
2018-10-04T14:27:31.944Z,102110.70
2018-10-04T14:30:04.744Z,102107.23
2018-10-04T14:32:35.989Z,102101.94
2018-10-04T14:35:06.065Z,102097.73
2018-10-04T14:40:24.822Z,102086.03
2018-10-04T14:42:54.614Z,102073.13
2018-10-04T14:45:29.789Z,102075.93
2018-10-04T14:48:00.868Z,102074.02
2018-10-04T14:50:33.449Z,102068.74
2018-10-04T14:53:12.495Z,102077.03
2018-10-04T14:55:43.385Z,102079.86
2018-10-04T14:58:13.659Z,102069.14
2018-10-04T15:00:46.934Z,102066.39
2018-10-04T15:03:16.488Z,102063.20
2018-10-04T15:05:48.993Z,102064.20
2018-10-04T15:08:23.169Z,102063.30
2018-10-04T15:10:55.628Z,102065.19
2018-10-04T15:13:27.225Z,102060.33
2018-10-04T15:15:57.392Z,102053.63
2018-10-04T15:18:28.248Z,102062.43
2018-10-04T15:21:04.620Z,102050.13
2018-10-04T15:23:34.368Z,102042.67
2018-10-04T15:26:03.903Z,102051.36
2018-10-04T15:28:33.437Z,102054.93
2018-10-04T15:31:04.434Z,102051.89
2018-10-04T15:33:36.743Z,102046.19
2018-10-04T15:36:06.475Z,102044.78
2018-10-04T15:38:36.169Z,102045.31
2018-10-04T15:41:07.400Z,102044.55
2018-10-04T15:43:37.484Z,102047.94
2018-10-04T15:46:09.275Z,102041.22
2018-10-04T15:48:40.199Z,102044.97
2018-10-04T15:51:14.944Z,102039.56
2018-10-04T15:53:45.555Z,102038.62
2018-10-04T15:56:15.829Z,102040.64
2018-10-04T15:58:46.239Z,102040.84
2018-10-04T16:01:20.091Z,102038.72
2018-10-04T16:03:52.635Z,102030.20
2018-10-04T16:06:26.176Z,102035.23
2018-10-04T16:08:56.522Z,102031.50
2018-10-04T16:11:30.633Z,102030.39
2018-10-04T16:14:06.193Z,102028.21
2018-10-04T16:16:37.667Z,102024.91
2018-10-04T16:19:10.942Z,102029.32
2018-10-04T16:21:42.226Z,102033.14
2018-10-04T16:24:13.644Z,102033.16
2018-10-04T16:26:54.843Z,102030.89
2018-10-04T16:29:26.413Z,102034.56
2018-10-04T16:32:02.249Z,102035.17
2018-10-04T16:34:33.159Z,102030.59
2018-10-04T16:37:13.118Z,102030.28
2018-10-04T16:39:44.295Z,102029.91
2018-10-04T16:42:25.461Z,102022.25
2018-10-04T16:44:55.297Z,102025.67
2018-10-04T16:47:28.060Z,102018.48
2018-10-04T16:49:59.384Z,102019.25
2018-10-04T16:52:29.807Z,102021.70
2018-10-04T16:55:03.271Z,102016.30
2018-10-04T16:57:33.875Z,102021.92
2018-10-04T17:00:14.173Z,102022.95
2018-10-04T17:02:46.269Z,102025.86
2018-10-04T17:05:20.972Z,102018.48
2018-10-04T17:07:55.469Z,102020.31
2018-10-04T17:10:32.694Z,102014.62
2018-10-04T17:13:10.690Z,102014.50
2018-10-04T17:15:45.898Z,102018.41
2018-10-04T17:18:16.090Z,102017.12
2018-10-04T17:20:48.072Z,102014.16
2018-10-04T17:23:24.368Z,102021.92
2018-10-04T17:26:12.854Z,102022.63
2018-10-04T17:28:43.249Z,102019.58
2018-10-04T17:31:13.973Z,102019.23
2018-10-04T17:33:46.444Z,102019.91
2018-10-04T17:36:16.701Z,102017.33
2018-10-04T17:38:47.521Z,102020.45
2018-10-04T17:41:18.490Z,102018.91
2018-10-04T17:43:48.611Z,102011.28
2018-10-04T17:46:24.316Z,102011.57
2018-10-04T17:48:55.981Z,102009.80
2018-10-04T17:51:25.891Z,102010.38
2018-10-04T17:53:56.574Z,102005.27
2018-10-04T17:56:29.778Z,102013.17
2018-10-04T17:59:02.213Z,102004.23
2018-10-04T18:01:37.519Z,102005.23
2018-10-04T18:04:11.052Z,102003.80
2018-10-04T18:06:48.192Z,102004.44
2018-10-04T18:09:17.657Z,102001.55
2018-10-04T18:11:55.630Z,102000.20
2018-10-04T18:14:31.644Z,102004.53
2018-10-04T18:17:12.900Z,102009.59
2018-10-04T18:19:45.555Z,102005.41
2018-10-04T18:22:19.220Z,102005.91
2018-10-04T18:24:50.950Z,102005.14
2018-10-04T18:27:34.251Z,102006.57
2018-10-04T18:30:17.621Z,102009.27
2018-10-04T18:32:47.589Z,102001.14
2018-10-04T18:35:18.506Z,102003.22
2018-10-04T18:37:49.817Z,101998.97
2018-10-04T18:40:28.554Z,101989.86
2018-10-04T18:42:58.582Z,101993.06
2018-10-04T18:48:47.237Z,101992.00
2018-10-04T18:51:20.278Z,101988.66
2018-10-04T18:53:49.843Z,101995.67
2018-10-04T18:56:25.794Z,101996.88
2018-10-04T18:58:57.092Z,101989.51
2018-10-04T19:01:29.565Z,101992.63
2018-10-04T19:04:09.648Z,101995.47
2018-10-04T19:06:43.685Z,101999.56
2018-10-04T19:09:16.337Z,101992.58
2018-10-04T19:11:49.922Z,101988.97
2018-10-04T19:14:28.354Z,101989.23
2018-10-04T19:17:01.165Z,101889.72
2018-10-04T19:19:33.308Z,101984.44
2018-10-04T19:22:03.177Z,101985.13
2018-10-04T19:24:36.062Z,101982.58
2018-10-04T19:27:10.375Z,101982.58
2018-10-04T19:29:41.005Z,101979.62
2018-10-04T19:32:10.561Z,101985.89
2018-10-04T19:34:42.325Z,101977.25
2018-10-04T19:37:17.052Z,101972.71
2018-10-04T19:39:48.679Z,101978.26
2018-10-04T19:42:19.508Z,101981.66
2018-10-04T19:44:52.027Z,101980.50
2018-10-04T19:47:25.922Z,101974.16
2018-10-04T19:50:01.670Z,101976.72
2018-10-04T19:52:35.927Z,101974.03
2018-10-04T19:55:12.319Z,101969.08
2018-10-04T19:57:43.440Z,101972.73
2018-10-04T20:00:16.380Z,101970.42
2018-10-04T20:02:47.554Z,101971.27
2018-10-04T20:05:20.271Z,101964.89
2018-10-04T20:07:52.948Z,101972.81
2018-10-04T20:10:24.343Z,101974.44
2018-10-04T20:12:55.691Z,101973.77
2018-10-04T20:15:30.685Z,101977.79
2018-10-04T20:20:52.845Z,101978.16
2018-10-04T20:23:23.349Z,101984.58
2018-10-04T20:25:53.033Z,101981.33
2018-10-04T20:28:24.509Z,101973.56
2018-10-04T20:31:10.292Z,101964.66
2018-10-04T20:33:43.675Z,101955.67
2018-10-04T20:36:14.920Z,101960.23
2018-10-04T20:38:46.467Z,101957.19
2018-10-04T20:41:18.585Z,101959.88
2018-10-04T20:43:48.761Z,101956.34
2018-10-04T20:46:23.531Z,101952.68
2018-10-04T20:49:00.283Z,101954.02
2018-10-04T20:51:38.011Z,101954.52
2018-10-04T20:54:08.613Z,101957.48
2018-10-04T20:56:41.410Z,101948.14
2018-10-04T20:59:12.409Z,101953.62
2018-10-04T21:01:47.645Z,101944.64
2018-10-04T21:04:22.944Z,101943.44
2018-10-04T21:06:55.317Z,101941.64
2018-10-04T21:09:26.823Z,101945.66
2018-10-04T21:11:57.222Z,101941.16
2018-10-04T21:14:30.693Z,101944.78
2018-10-04T21:17:05.845Z,101934.94
2018-10-04T21:19:36.501Z,101940.06
2018-10-04T21:22:07.221Z,101935.67
2018-10-04T21:24:38.073Z,101935.19
2018-10-04T21:27:13.652Z,101933.36
2018-10-04T21:29:49.183Z,101930.56
2018-10-04T21:32:30.462Z,101928.73
2018-10-04T21:35:11.123Z,101926.91
2018-10-04T21:37:40.955Z,101925.64
2018-10-04T21:40:11.123Z,101921.86
2018-10-04T21:42:40.583Z,101921.93
2018-10-04T21:45:21.189Z,101921.32
2018-10-04T21:47:52.958Z,101921.23
2018-10-04T21:50:26.436Z,101920.17
2018-10-04T21:52:57.437Z,101919.05
2018-10-04T21:55:31.567Z,101919.84
2018-10-04T21:58:03.176Z,101917.19
2018-10-04T22:03:02.876Z,101925.47
2018-10-04T22:05:43.153Z,101927.54
2018-10-04T22:08:12.908Z,101933.75
2018-10-04T22:10:43.386Z,101929.61
2018-10-04T22:13:13.929Z,101926.94
2018-10-04T22:15:45.595Z,101927.42
2018-10-04T22:18:17.274Z,101921.45
2018-10-04T22:20:48.637Z,101925.23
2018-10-04T22:23:20.986Z,101926.11
2018-10-04T22:25:50.439Z,101927.56
2018-10-04T22:28:20.130Z,101925.14
2018-10-04T22:30:51.517Z,101922.00
2018-10-04T22:33:21.084Z,101920.66
2018-10-04T22:35:51.767Z,101916.39
2018-10-04T22:38:21.544Z,101919.00
2018-10-04T22:40:51.384Z,101920.12
2018-10-04T22:43:21.103Z,101912.23
2018-10-04T22:45:53.381Z,101911.30
2018-10-04T22:48:22.899Z,101911.90
2018-10-04T22:50:52.668Z,101913.25
2018-10-04T22:53:22.372Z,101903.79
2018-10-04T22:55:55.002Z,101904.90
2018-10-04T22:58:24.769Z,101904.16
2018-10-04T23:00:58.809Z,101905.78
2018-10-04T23:03:28.476Z,101901.05
2018-10-04T23:05:57.844Z,101899.48
2018-10-04T23:08:27.265Z,101891.33
2018-10-04T23:10:58.292Z,101886.45
2018-10-04T23:13:28.230Z,101885.36
2018-10-04T23:15:58.136Z,101885.73
2018-10-04T23:18:27.633Z,101884.87
2018-10-04T23:20:58.238Z,101880.11
2018-10-04T23:23:28.028Z,101882.42
2018-10-04T23:25:57.824Z,101879.81
2018-10-04T23:28:27.499Z,101881.16
2018-10-04T23:30:57.226Z,101878.98
2018-10-04T23:33:26.720Z,101878.00
2018-10-04T23:35:56.616Z,101880.07
2018-10-04T23:38:27.805Z,101873.38
2018-10-04T23:40:57.865Z,101881.17
2018-10-04T23:43:28.569Z,101878.02
2018-10-04T23:46:00.297Z,101877.37
2018-10-04T23:48:29.737Z,101874.59
2018-10-04T23:50:59.940Z,101873.25
2018-10-04T23:53:29.800Z,101868.50
2018-10-04T23:56:04.588Z,101864.18
2018-10-04T23:58:34.337Z,101820.61
